PH-0077 weather

Clark International Airport South Ramp Heliport
Mabalacat City, Philippines

Public forecast

Using degrees Celsius for public forecast. Weather courtesy of forecast.io.

Closest aviation weather report (METAR) to Clark International Airport South Ramp Heliport

Closest report is Diosdado Macapagal International Airport, 1.2 nm (2.2 km) NE. Retrieved 2019/11/16 00:00 UTC (25 minutes ago):

RPLC 160000Z 09002KT 8000 FEW020 SCT100 BKN300 29/24 Q1012 NOSIG RMK A2988

Closest aviation forecast (TAF) to Clark International Airport South Ramp Heliport

Closest forecast is Diosdado Macapagal International Airport, 1.2 nm (2.2 km) NE. Retrieved 2019-11-16 00:03 UTC (22 minutes ago):

TAF RPLC 152300Z 1600/1706 02005KT 9000 FEW020 BKN300 TX33/1606Z TN25/1622Z TEMPO 1600/1606 34010KT SCT020 BKN100